createdAt,value
2023-10-19T00:00:40.791Z,4.79
2023-10-19T00:03:29.061Z,4.80
2023-10-19T00:05:57.500Z,4.82
2023-10-19T00:08:25.472Z,4.82
2023-10-19T00:11:03.724Z,4.81
2023-10-19T00:13:32.444Z,4.81
2023-10-19T00:16:00.979Z,4.82
2023-10-19T00:18:28.840Z,4.80
2023-10-19T00:21:00.300Z,4.80
2023-10-19T00:23:41.151Z,4.79
2023-10-19T00:26:10.214Z,4.80
2023-10-19T00:28:42.176Z,4.79
2023-10-19T00:31:10.295Z,4.77
2023-10-19T00:33:40.486Z,4.76
2023-10-19T00:36:10.665Z,4.73
2023-10-19T00:38:39.697Z,4.73
2023-10-19T00:41:13.221Z,4.72
2023-10-19T00:43:45.550Z,4.71
2023-10-19T00:46:25.515Z,4.72
2023-10-19T00:48:59.440Z,4.72
2023-10-19T00:51:34.767Z,4.71
2023-10-19T00:54:11.793Z,4.71
2023-10-19T00:56:45.954Z,4.70
2023-10-19T00:59:21.337Z,4.68
2023-10-19T01:01:55.430Z,4.66
2023-10-19T01:04:24.561Z,4.64
2023-10-19T01:07:21.726Z,4.63
2023-10-19T01:09:54.825Z,4.62
2023-10-19T01:12:34.376Z,4.61
2023-10-19T01:15:25.070Z,4.59
2023-10-19T01:18:00.315Z,4.58
2023-10-19T01:20:31.004Z,4.58
2023-10-19T01:23:11.316Z,4.56
2023-10-19T01:25:56.886Z,4.55
2023-10-19T01:28:47.043Z,4.55
2023-10-19T01:31:29.741Z,4.54
2023-10-19T01:34:00.206Z,4.54
2023-10-19T01:36:28.867Z,4.53
2023-10-19T01:39:02.629Z,4.51
2023-10-19T01:41:33.521Z,4.49
2023-10-19T01:44:22.255Z,4.47
2023-10-19T01:46:50.543Z,4.46
2023-10-19T01:49:36.497Z,4.45
2023-10-19T01:52:05.644Z,4.45
2023-10-19T01:54:35.849Z,4.44
2023-10-19T01:57:04.746Z,4.43
2023-10-19T01:59:35.674Z,4.42
2023-10-19T02:02:03.800Z,4.41
2023-10-19T02:04:36.505Z,4.39
2023-10-19T02:07:04.649Z,4.39
2023-10-19T02:09:34.004Z,4.38
2023-10-19T02:12:07.178Z,4.35
2023-10-19T02:14:35.773Z,4.35
2023-10-19T02:17:05.092Z,4.36
2023-10-19T02:19:34.287Z,4.36
2023-10-19T02:22:13.013Z,4.36
2023-10-19T02:24:40.959Z,4.36
2023-10-19T02:27:13.654Z,4.37
2023-10-19T02:29:48.254Z,4.36
2023-10-19T02:32:19.573Z,4.37
2023-10-19T02:34:47.698Z,4.37
2023-10-19T02:37:15.647Z,4.37
2023-10-19T02:39:45.136Z,4.37
2023-10-19T02:42:12.971Z,4.37
2023-10-19T02:44:41.124Z,4.36
2023-10-19T02:47:10.722Z,4.36
2023-10-19T02:49:44.964Z,4.35
2023-10-19T02:52:14.483Z,4.35
2023-10-19T02:54:43.214Z,4.34
2023-10-19T02:57:14.868Z,4.34
2023-10-19T02:59:43.314Z,4.33
2023-10-19T03:02:14.264Z,4.33
2023-10-19T03:04:47.595Z,4.32
2023-10-19T03:07:17.271Z,4.30
2023-10-19T03:09:55.218Z,4.29
2023-10-19T03:12:27.858Z,4.27
2023-10-19T03:14:56.086Z,4.25
2023-10-19T03:17:26.883Z,4.24
2023-10-19T03:19:56.958Z,4.22
2023-10-19T03:22:26.043Z,4.21
2023-10-19T03:25:12.981Z,4.19
2023-10-19T03:27:41.569Z,4.19
2023-10-19T03:30:15.724Z,4.19
2023-10-19T03:32:44.140Z,4.18
2023-10-19T03:35:17.195Z,4.18
2023-10-19T03:37:48.733Z,4.16
2023-10-19T03:40:21.683Z,4.18
2023-10-19T03:42:49.605Z,4.17
2023-10-19T03:45:17.362Z,4.19
2023-10-19T03:47:46.085Z,4.21
2023-10-19T03:50:21.800Z,4.22
2023-10-19T03:52:49.972Z,4.23
2023-10-19T03:55:24.478Z,4.24
2023-10-19T03:57:55.851Z,4.27
2023-10-19T04:00:29.806Z,4.28
2023-10-19T04:03:00.484Z,4.31
2023-10-19T04:05:30.012Z,4.34
2023-10-19T04:08:02.267Z,4.37
2023-10-19T04:10:36.401Z,4.40
2023-10-19T04:13:04.799Z,4.44
2023-10-19T04:15:37.005Z,4.46
2023-10-19T04:18:12.615Z,4.51
2023-10-19T04:20:56.075Z,4.54
2023-10-19T04:23:36.474Z,4.58
2023-10-19T04:26:12.230Z,4.61
2023-10-19T04:28:51.751Z,4.65
2023-10-19T04:31:20.549Z,4.68
2023-10-19T04:33:48.455Z,4.68
2023-10-19T04:36:17.682Z,4.72
2023-10-19T04:38:45.639Z,4.73
2023-10-19T04:41:13.535Z,4.75
2023-10-19T04:43:41.504Z,4.75
2023-10-19T04:46:14.319Z,4.78
2023-10-19T04:48:43.618Z,4.78
2023-10-19T04:51:12.033Z,4.80
2023-10-19T04:53:40.002Z,4.82
2023-10-19T04:56:10.433Z,4.84
2023-10-19T04:58:38.940Z,4.87
2023-10-19T05:01:06.934Z,4.89
2023-10-19T05:03:36.307Z,4.90
2023-10-19T05:06:04.684Z,4.92
2023-10-19T05:08:34.193Z,4.95
2023-10-19T05:11:02.957Z,4.96
2023-10-19T05:13:32.706Z,4.96
2023-10-19T05:16:00.778Z,4.98
2023-10-19T05:18:29.129Z,4.99
2023-10-19T05:20:57.107Z,5.01
2023-10-19T05:23:25.590Z,5.03
2023-10-19T05:25:55.542Z,5.05
2023-10-19T05:28:23.405Z,5.07
2023-10-19T05:30:51.383Z,5.11
2023-10-19T05:33:22.561Z,5.14
2023-10-19T05:35:51.894Z,5.15
2023-10-19T05:38:23.963Z,5.17
2023-10-19T05:40:53.370Z,5.20
2023-10-19T05:43:21.760Z,5.22
2023-10-19T05:45:51.770Z,5.26
2023-10-19T05:48:21.621Z,5.30
2023-10-19T05:50:50.992Z,5.34
2023-10-19T05:53:23.815Z,5.40
2023-10-19T05:55:52.067Z,5.44
2023-10-19T05:58:21.634Z,5.48
2023-10-19T06:00:53.536Z,5.52
2023-10-19T06:03:22.092Z,5.56
2023-10-19T06:05:50.400Z,5.62
2023-10-19T06:08:19.190Z,5.68
2023-10-19T06:10:53.063Z,5.71
2023-10-19T06:13:23.426Z,5.76
2023-10-19T06:15:53.259Z,5.79
2023-10-19T06:18:22.243Z,5.83
2023-10-19T06:20:52.713Z,5.88
2023-10-19T06:23:21.113Z,5.89
2023-10-19T06:25:52.754Z,5.91
2023-10-19T06:28:20.810Z,5.95
2023-10-19T06:30:49.586Z,5.97
2023-10-19T06:33:18.380Z,6.00
2023-10-19T06:35:46.306Z,6.05
2023-10-19T06:38:14.436Z,6.08
2023-10-19T06:40:43.589Z,6.11
2023-10-19T06:43:12.736Z,6.13
2023-10-19T06:45:49.188Z,6.16
2023-10-19T06:48:17.091Z,6.20
2023-10-19T06:50:49.658Z,6.25
2023-10-19T06:53:20.548Z,6.28
2023-10-19T06:55:50.594Z,6.32
2023-10-19T06:58:21.360Z,6.37
2023-10-19T07:00:57.820Z,6.41
2023-10-19T07:03:31.932Z,6.45
2023-10-19T07:06:04.848Z,6.48
2023-10-19T07:08:37.454Z,6.50
2023-10-19T07:11:05.659Z,6.56
2023-10-19T07:13:34.883Z,6.60
2023-10-19T07:19:03.142Z,6.64
2023-10-19T07:21:33.473Z,6.74
2023-10-19T07:24:06.287Z,6.79
2023-10-19T07:26:42.826Z,6.83
2023-10-19T07:29:11.590Z,6.89
2023-10-19T07:31:40.367Z,6.94
2023-10-19T07:34:09.963Z,7.00
2023-10-19T07:36:38.284Z,7.08
2023-10-19T07:39:15.599Z,7.19
2023-10-19T07:41:45.371Z,7.31
2023-10-19T07:44:13.798Z,7.43
2023-10-19T07:46:42.663Z,7.51
2023-10-19T07:49:10.540Z,7.61
2023-10-19T07:51:53.688Z,7.69
2023-10-19T07:54:24.189Z,7.75
2023-10-19T07:56:52.304Z,7.79
2023-10-19T07:59:23.155Z,7.84
2023-10-19T08:01:53.230Z,7.87
2023-10-19T08:04:21.996Z,7.90
2023-10-19T08:06:50.012Z,7.92
2023-10-19T08:09:24.185Z,7.95
2023-10-19T08:11:56.738Z,7.96
2023-10-19T08:14:27.873Z,7.97
2023-10-19T08:16:58.025Z,7.94
2023-10-19T08:19:28.331Z,7.93
2023-10-19T08:21:56.880Z,7.94
2023-10-19T08:24:25.141Z,7.96
2023-10-19T08:26:53.159Z,7.97
2023-10-19T08:29:21.321Z,7.99
2023-10-19T08:31:49.786Z,8.00
2023-10-19T08:34:18.780Z,8.02
2023-10-19T08:36:47.113Z,8.06
2023-10-19T08:39:15.903Z,8.06
2023-10-19T08:41:44.499Z,8.06
2023-10-19T08:44:12.823Z,8.07
2023-10-19T08:46:46.662Z,8.12
2023-10-19T08:49:16.868Z,8.17
2023-10-19T08:51:46.857Z,8.25
2023-10-19T08:54:16.582Z,8.32
2023-10-19T08:56:45.868Z,8.40
2023-10-19T08:59:16.569Z,8.48
2023-10-19T09:01:47.357Z,8.57
2023-10-19T09:04:18.064Z,8.66
2023-10-19T09:06:46.703Z,8.73
2023-10-19T09:09:18.064Z,8.76
2023-10-19T09:11:50.133Z,8.78
2023-10-19T09:14:34.880Z,8.68
2023-10-19T09:17:09.559Z,8.79
2023-10-19T09:19:43.206Z,8.80
2023-10-19T09:22:19.825Z,8.80
2023-10-19T09:24:54.608Z,8.82
2023-10-19T09:27:23.204Z,8.82
2023-10-19T09:29:52.990Z,8.84
2023-10-19T09:32:21.608Z,8.84
2023-10-19T09:34:54.425Z,8.84
2023-10-19T09:37:26.136Z,8.84
2023-10-19T09:39:57.049Z,8.88
2023-10-19T09:42:33.462Z,8.90
2023-10-19T09:45:07.063Z,8.97
2023-10-19T09:47:40.544Z,9.00
2023-10-19T09:50:12.515Z,9.09
2023-10-19T09:52:41.193Z,9.14
2023-10-19T09:55:29.064Z,9.17
2023-10-19T09:58:08.434Z,9.22
2023-10-19T10:00:37.048Z,9.24
2023-10-19T10:03:09.814Z,9.26
2023-10-19T10:05:44.379Z,9.27
2023-10-19T10:08:18.272Z,9.30
2023-10-19T10:10:52.529Z,9.32
2023-10-19T10:13:29.891Z,9.34
2023-10-19T10:16:00.138Z,9.36
2023-10-19T10:18:34.583Z,9.40
2023-10-19T10:21:11.562Z,9.40
2023-10-19T10:23:51.446Z,9.41
2023-10-19T10:26:21.754Z,9.39
2023-10-19T10:29:10.843Z,9.37
2023-10-19T10:31:44.201Z,9.33
2023-10-19T10:34:32.367Z,9.31
2023-10-19T10:37:05.104Z,9.28
2023-10-19T10:39:41.821Z,9.25
2023-10-19T10:42:11.367Z,9.24
2023-10-19T10:44:45.149Z,9.19
2023-10-19T10:47:24.404Z,9.14
2023-10-19T10:49:57.469Z,9.13
2023-10-19T10:52:31.183Z,9.11
2023-10-19T10:55:08.145Z,9.09
2023-10-19T10:57:37.890Z,9.03
2023-10-19T11:00:07.825Z,9.00
2023-10-19T11:02:37.461Z,8.94
2023-10-19T11:05:06.282Z,8.90
2023-10-19T11:07:34.471Z,8.84
2023-10-19T11:10:03.067Z,8.80
2023-10-19T11:12:31.590Z,8.77
2023-10-19T11:15:01.534Z,8.73
2023-10-19T11:17:32.806Z,8.70
2023-10-19T11:20:05.970Z,8.69
2023-10-19T11:22:35.067Z,8.65
2023-10-19T11:25:25.765Z,8.43
2023-10-19T11:27:56.981Z,8.63
2023-10-19T11:30:26.001Z,8.60
2023-10-19T11:32:58.342Z,8.57
2023-10-19T11:35:32.218Z,8.54
2023-10-19T11:38:03.897Z,8.52
2023-10-19T11:40:32.230Z,8.50
2023-10-19T11:43:02.554Z,8.52
2023-10-19T11:45:31.153Z,8.58
2023-10-19T11:48:01.231Z,8.63
2023-10-19T11:50:30.178Z,8.70
2023-10-19T11:52:58.704Z,8.66
2023-10-19T11:55:26.944Z,8.75
2023-10-19T11:57:54.712Z,8.78
2023-10-19T12:00:35.211Z,8.78
2023-10-19T12:03:07.936Z,8.76
2023-10-19T12:05:39.956Z,8.74
2023-10-19T12:08:08.156Z,8.74
2023-10-19T12:10:39.663Z,8.74
2023-10-19T12:13:13.261Z,8.76
2023-10-19T12:15:42.358Z,8.77
2023-10-19T12:18:10.306Z,8.79
2023-10-19T12:20:39.337Z,8.80
2023-10-19T12:23:07.815Z,8.78
2023-10-19T12:25:53.853Z,8.77
2023-10-19T12:28:29.649Z,8.80
2023-10-19T12:30:57.772Z,8.84
2023-10-19T12:33:25.749Z,8.89
2023-10-19T12:36:02.542Z,8.93
2023-10-19T12:38:30.923Z,8.98
2023-10-19T12:41:00.262Z,8.98
2023-10-19T12:43:31.309Z,8.99
2023-10-19T12:45:59.362Z,9.00
2023-10-19T12:48:35.097Z,9.00
2023-10-19T12:51:12.811Z,9.06
2023-10-19T12:53:41.477Z,9.12
2023-10-19T12:56:11.757Z,9.16
2023-10-19T12:58:39.596Z,9.17
2023-10-19T13:01:10.174Z,9.22
2023-10-19T13:03:39.771Z,9.24
2023-10-19T13:06:08.903Z,9.27
2023-10-19T13:08:39.326Z,9.28
2023-10-19T13:11:16.686Z,9.27
2023-10-19T13:13:48.148Z,9.28
2023-10-19T13:16:17.019Z,9.31
2023-10-19T13:18:45.582Z,9.32
2023-10-19T13:21:18.575Z,9.32
2023-10-19T13:23:46.813Z,9.33
2023-10-19T13:26:18.702Z,9.31
2023-10-19T13:28:48.451Z,9.32
2023-10-19T13:31:17.134Z,9.32
2023-10-19T13:33:46.834Z,9.35
2023-10-19T13:36:15.135Z,9.37
2023-10-19T13:38:44.492Z,9.36
2023-10-19T13:41:13.165Z,9.35
2023-10-19T13:43:43.994Z,9.34
2023-10-19T13:46:12.626Z,9.36
2023-10-19T13:48:41.188Z,9.37
2023-10-19T13:51:16.947Z,9.38
2023-10-19T13:53:46.586Z,9.39
2023-10-19T13:56:18.221Z,9.39
2023-10-19T13:58:48.528Z,9.43
2023-10-19T14:01:18.183Z,9.32
2023-10-19T14:03:47.435Z,9.44
2023-10-19T14:06:16.404Z,9.43
2023-10-19T14:08:44.373Z,9.43
2023-10-19T14:11:12.997Z,9.43
2023-10-19T14:13:44.737Z,9.43
2023-10-19T14:16:12.903Z,9.43
2023-10-19T14:18:41.676Z,9.42
2023-10-19T14:21:17.710Z,9.43
2023-10-19T14:23:47.181Z,9.42
2023-10-19T14:26:16.011Z,9.44
2023-10-19T14:28:44.445Z,9.43
2023-10-19T14:31:13.605Z,9.44
2023-10-19T14:33:41.437Z,9.44
2023-10-19T14:36:10.371Z,9.43
2023-10-19T14:38:40.764Z,9.42
2023-10-19T14:41:10.765Z,9.43
2023-10-19T14:43:39.415Z,9.43
2023-10-19T14:46:07.908Z,9.45
2023-10-19T14:48:38.923Z,9.45
2023-10-19T14:51:08.325Z,9.44
2023-10-19T14:53:36.050Z,9.41
2023-10-19T14:56:05.084Z,9.42
2023-10-19T14:58:33.396Z,9.38
2023-10-19T15:01:01.461Z,9.36
2023-10-19T15:03:30.562Z,9.32
2023-10-19T15:06:01.064Z,9.31
2023-10-19T15:08:32.515Z,9.32
2023-10-19T15:11:01.392Z,9.30
2023-10-19T15:13:29.348Z,9.29
2023-10-19T15:15:57.947Z,9.26
2023-10-19T15:18:26.610Z,9.26
2023-10-19T15:20:54.368Z,9.24
2023-10-19T15:23:22.668Z,9.25
2023-10-19T15:25:51.087Z,9.25
2023-10-19T15:28:18.893Z,9.22
2023-10-19T15:30:46.745Z,9.21
2023-10-19T15:33:15.991Z,9.18
2023-10-19T15:35:43.815Z,9.19
2023-10-19T15:38:11.769Z,9.15
2023-10-19T15:40:41.621Z,9.14
2023-10-19T15:43:11.005Z,9.11
2023-10-19T15:45:42.527Z,9.10
2023-10-19T15:48:13.210Z,9.09
2023-10-19T15:50:44.675Z,9.06
2023-10-19T15:53:13.139Z,9.05
2023-10-19T15:55:41.990Z,9.03
2023-10-19T15:58:12.499Z,9.03
2023-10-19T16:00:41.312Z,9.03
2023-10-19T16:03:09.826Z,9.02
2023-10-19T16:05:38.007Z,9.00
2023-10-19T16:08:07.535Z,8.99
2023-10-19T16:10:35.636Z,8.98
2023-10-19T16:13:04.558Z,8.97
2023-10-19T16:15:32.869Z,8.96
2023-10-19T16:18:01.116Z,8.97
2023-10-19T16:20:30.038Z,8.97
2023-10-19T16:23:00.203Z,8.98
2023-10-19T16:25:28.153Z,8.98
2023-10-19T16:27:56.366Z,8.99
2023-10-19T16:30:24.385Z,8.99
2023-10-19T16:32:52.603Z,9.00
2023-10-19T16:35:20.900Z,9.00
2023-10-19T16:37:49.777Z,9.00
2023-10-19T16:40:17.856Z,8.99
2023-10-19T16:42:46.033Z,8.99
2023-10-19T16:45:14.690Z,9.00
2023-10-19T16:47:43.964Z,9.00
2023-10-19T16:50:20.380Z,9.01
2023-10-19T16:52:50.275Z,9.00
2023-10-19T16:55:19.907Z,9.02
2023-10-19T16:57:48.094Z,9.02
2023-10-19T17:00:17.610Z,9.04
2023-10-19T17:02:45.783Z,9.05
2023-10-19T17:05:14.338Z,9.05
2023-10-19T17:07:42.451Z,9.05
2023-10-19T17:10:10.981Z,9.06
2023-10-19T17:12:39.857Z,9.06
2023-10-19T17:15:13.860Z,9.05
2023-10-19T17:17:43.422Z,9.04
2023-10-19T17:20:12.564Z,9.04
2023-10-19T17:22:40.774Z,9.02
2023-10-19T17:25:09.220Z,9.01
2023-10-19T17:27:39.414Z,9.02
2023-10-19T17:30:08.107Z,9.00
2023-10-19T17:32:36.406Z,9.00
2023-10-19T17:35:06.168Z,9.00
2023-10-19T17:37:34.707Z,9.00
2023-10-19T17:40:05.911Z,9.00
2023-10-19T17:42:33.870Z,9.00
2023-10-19T17:45:01.652Z,9.00
2023-10-19T17:47:30.076Z,9.03
2023-10-19T17:49:58.365Z,9.03
2023-10-19T17:52:26.173Z,9.04
2023-10-19T17:54:54.924Z,9.04
2023-10-19T17:57:24.187Z,9.04
2023-10-19T17:59:52.011Z,9.04
2023-10-19T18:02:20.498Z,9.05
2023-10-19T18:04:54.334Z,9.04
2023-10-19T18:07:23.750Z,9.03
2023-10-19T18:09:52.019Z,9.02
2023-10-19T18:12:20.712Z,9.01
2023-10-19T18:14:50.007Z,8.99
2023-10-19T18:17:19.842Z,8.98
2023-10-19T18:19:52.426Z,8.97
2023-10-19T18:22:20.656Z,8.95
2023-10-19T18:24:48.728Z,8.97
2023-10-19T18:27:17.110Z,8.98
2023-10-19T18:29:45.458Z,8.97
2023-10-19T18:32:13.290Z,8.97
2023-10-19T18:34:41.316Z,8.94
2023-10-19T18:37:12.889Z,8.89
2023-10-19T18:39:40.755Z,8.92
2023-10-19T18:42:12.829Z,8.93
2023-10-19T18:44:41.036Z,8.92
2023-10-19T18:47:09.304Z,8.92
2023-10-19T18:49:37.522Z,8.94
2023-10-19T18:52:08.487Z,8.94
2023-10-19T18:54:36.505Z,8.95
2023-10-19T18:57:04.815Z,8.95
2023-10-19T18:59:33.388Z,8.96
2023-10-19T19:02:01.380Z,8.96
2023-10-19T19:04:29.442Z,8.96
2023-10-19T19:06:57.591Z,8.97
2023-10-19T19:09:28.196Z,8.98
2023-10-19T19:11:56.905Z,8.98
2023-10-19T19:14:25.251Z,8.97
2023-10-19T19:16:53.183Z,8.99
2023-10-19T19:19:21.252Z,8.99
2023-10-19T19:21:49.470Z,8.99
2023-10-19T19:24:17.283Z,8.99
2023-10-19T19:26:45.746Z,8.97
2023-10-19T19:29:13.976Z,8.99
2023-10-19T19:31:41.806Z,9.00
2023-10-19T19:34:09.770Z,9.00
2023-10-19T19:36:37.878Z,9.00
2023-10-19T19:39:08.448Z,9.00
2023-10-19T19:41:36.362Z,9.01
2023-10-19T19:44:04.812Z,8.99
2023-10-19T19:46:32.901Z,9.00
2023-10-19T19:49:02.703Z,8.99
2023-10-19T19:51:34.391Z,8.99
2023-10-19T19:54:04.505Z,8.98
2023-10-19T19:56:32.957Z,8.98
2023-10-19T19:59:01.183Z,8.99
2023-10-19T20:01:28.969Z,8.99
2023-10-19T20:03:57.383Z,8.99
2023-10-19T20:06:25.197Z,8.99
2023-10-19T20:08:52.906Z,8.97
2023-10-19T20:11:21.866Z,8.94
2023-10-19T20:13:49.670Z,8.95
2023-10-19T20:16:17.486Z,8.95
2023-10-19T20:18:46.080Z,8.95
2023-10-19T20:21:16.520Z,8.95
2023-10-19T20:23:44.294Z,8.92
2023-10-19T20:26:16.015Z,8.93
2023-10-19T20:28:44.227Z,8.95
2023-10-19T20:31:12.093Z,8.94
2023-10-19T20:33:40.761Z,8.92
2023-10-19T20:36:08.522Z,8.92
2023-10-19T20:38:37.445Z,8.91
2023-10-19T20:41:06.031Z,8.88
2023-10-19T20:43:34.800Z,8.87
2023-10-19T20:46:05.870Z,8.86
2023-10-19T20:48:34.123Z,8.85
2023-10-19T20:51:04.030Z,8.84
2023-10-19T20:53:31.806Z,8.84
2023-10-19T20:56:01.489Z,8.83
2023-10-19T20:58:29.684Z,8.81
2023-10-19T21:01:06.561Z,8.78
2023-10-19T21:03:35.576Z,8.76
2023-10-19T21:06:14.629Z,8.75
2023-10-19T21:08:43.302Z,8.75
2023-10-19T21:11:21.971Z,8.76
2023-10-19T21:13:50.720Z,8.78
2023-10-19T21:16:18.526Z,8.78
2023-10-19T21:18:46.520Z,8.80
2023-10-19T21:21:15.069Z,8.80
2023-10-19T21:23:42.894Z,8.79
2023-10-19T21:26:12.791Z,8.78
2023-10-19T21:28:44.428Z,8.76
2023-10-19T21:31:12.895Z,8.74
2023-10-19T21:33:40.841Z,8.74
2023-10-19T21:36:09.014Z,8.73
2023-10-19T21:38:39.267Z,8.71
2023-10-19T21:41:08.684Z,8.69
2023-10-19T21:43:37.442Z,8.70
2023-10-19T21:46:06.107Z,8.70
2023-10-19T21:48:34.288Z,8.71
2023-10-19T21:51:02.484Z,8.72
2023-10-19T21:53:30.637Z,8.72
2023-10-19T21:55:59.103Z,8.73
2023-10-19T21:58:27.199Z,8.74
2023-10-19T22:00:58.059Z,8.74
2023-10-19T22:03:26.508Z,8.75
2023-10-19T22:05:55.011Z,8.73
2023-10-19T22:08:23.186Z,8.72
2023-10-19T22:10:51.509Z,8.69
2023-10-19T22:13:19.349Z,8.68
2023-10-19T22:15:47.434Z,8.68
2023-10-19T22:18:15.701Z,8.69
2023-10-19T22:20:43.752Z,8.69
2023-10-19T22:23:11.754Z,8.68
2023-10-19T22:25:40.259Z,8.68
2023-10-19T22:28:08.941Z,8.68
2023-10-19T22:30:36.870Z,8.68
2023-10-19T22:33:04.944Z,8.68
2023-10-19T22:35:32.954Z,8.68
2023-10-19T22:38:02.361Z,8.67
2023-10-19T22:40:30.367Z,8.67
2023-10-19T22:42:58.620Z,8.66
2023-10-19T22:45:26.561Z,8.63
2023-10-19T22:47:54.939Z,8.62
2023-10-19T22:50:23.130Z,8.61
2023-10-19T22:52:51.140Z,8.59
2023-10-19T22:55:19.653Z,8.57
2023-10-19T22:57:52.273Z,8.56
2023-10-19T23:00:21.330Z,8.53
2023-10-19T23:02:49.915Z,8.51
2023-10-19T23:05:18.656Z,8.49
2023-10-19T23:07:47.531Z,8.47
2023-10-19T23:10:20.356Z,8.45
2023-10-19T23:12:48.723Z,8.42
2023-10-19T23:15:20.596Z,8.40
2023-10-19T23:17:52.115Z,8.37
2023-10-19T23:20:29.338Z,8.34
2023-10-19T23:22:59.689Z,8.30
2023-10-19T23:25:29.650Z,8.29
2023-10-19T23:27:58.289Z,8.27
2023-10-19T23:30:26.350Z,8.25
2023-10-19T23:32:55.745Z,8.23
2023-10-19T23:35:23.942Z,8.21
2023-10-19T23:37:52.345Z,8.18
2023-10-19T23:40:20.903Z,8.17
2023-10-19T23:42:48.638Z,8.18
2023-10-19T23:45:16.934Z,8.19
2023-10-19T23:47:48.374Z,8.19
2023-10-19T23:50:16.424Z,8.17
2023-10-19T23:52:44.535Z,8.16
2023-10-19T23:55:14.638Z,8.17
2023-10-19T23:57:44.222Z,8.19
